createdAt,value
2014-11-10T00:05:55.927Z,100903
2014-11-10T00:11:56.427Z,100894
2014-11-10T00:17:56.924Z,100891
2014-11-10T00:23:57.422Z,100897
2014-11-10T00:29:57.905Z,100894
2014-11-10T00:36:58.452Z,100906
2014-11-10T00:43:59.000Z,100906
2014-11-10T00:49:59.717Z,100897
2014-11-10T00:55:00.024Z,100905
2014-11-10T01:06:00.879Z,100897
2014-11-10T01:12:01.377Z,100894
2014-11-10T01:19:01.924Z,100891
2014-11-10T01:24:02.357Z,100897
2014-11-10T01:31:02.906Z,100914
2014-11-10T01:37:03.404Z,100905
2014-11-10T01:42:03.852Z,100891
2014-11-10T01:47:04.285Z,100882
2014-11-10T01:52:04.735Z,100891
2014-11-10T01:57:05.169Z,100896
2014-11-10T02:05:05.796Z,100891
2014-11-10T02:11:06.354Z,100882
2014-11-10T02:16:06.804Z,100870
2014-11-10T02:24:07.425Z,100867
2014-11-10T02:30:07.907Z,100870
2014-11-10T02:37:08.470Z,100864
2014-11-10T02:42:08.903Z,100846
2014-11-10T02:47:09.336Z,100852
2014-11-10T02:54:09.883Z,100879
2014-11-10T03:00:10.383Z,100893
2014-11-10T03:07:10.993Z,100893
2014-11-10T03:13:11.427Z,100887
2014-11-10T03:19:11.911Z,100902
2014-11-10T03:27:12.506Z,100896
2014-11-10T03:33:13.006Z,100914
2014-11-10T03:39:13.503Z,100896
2014-11-10T03:46:14.050Z,100875
2014-11-10T03:51:14.484Z,100887
2014-11-10T06:16:35.647Z,100898
2014-11-10T06:21:36.080Z,100904
2014-11-10T06:27:36.564Z,100898
2014-11-10T06:32:37.012Z,100907
2014-11-10T06:37:37.445Z,100916
2014-11-10T06:43:37.944Z,100916
2014-11-10T06:48:38.377Z,100930
2014-11-10T06:55:38.925Z,100904
2014-11-10T07:00:39.373Z,100898
2014-11-10T07:05:39.823Z,100893
2014-11-10T07:11:40.306Z,100904
2014-11-10T07:16:40.754Z,100925
2014-11-10T07:22:41.237Z,100913
2014-11-10T07:28:41.735Z,100925
2014-11-10T07:33:42.168Z,100922
2014-11-10T07:39:42.666Z,100919
2014-11-10T07:44:43.116Z,100908
2014-11-10T22:22:01.289Z,101071
2014-11-10T22:27:01.566Z,101062
2014-11-10T22:32:02.015Z,101068
2014-11-10T22:37:02.432Z,101074
2014-11-10T22:43:02.962Z,101080
2014-11-10T22:49:03.430Z,101091
2014-11-10T22:58:04.075Z,101111
2014-11-10T23:04:04.573Z,101108
2014-11-10T23:11:05.120Z,101114
2014-11-10T23:17:05.618Z,101123
2014-11-10T23:26:06.265Z,101126
2014-11-10T23:32:06.748Z,101120
2014-11-10T23:39:07.295Z,101108
2014-11-10T23:45:07.792Z,101111
2014-11-10T23:50:08.226Z,101102
2014-11-10T23:57:08.773Z,101099
